createdAt,value
2018-02-18T00:01:42.524Z,100.00
2018-02-18T00:04:10.336Z,100.00
2018-02-18T00:06:37.877Z,100.00
2018-02-18T00:09:05.414Z,100.00
2018-02-18T00:11:33.048Z,100.00
2018-02-18T00:14:00.594Z,100.00
2018-02-18T00:16:28.127Z,100.00
2018-02-18T00:18:55.727Z,100.00
2018-02-18T00:21:23.277Z,100.00
2018-02-18T00:23:50.827Z,100.00
2018-02-18T00:26:18.384Z,100.00
2018-02-18T00:28:45.917Z,100.00
2018-02-18T00:31:13.530Z,100.00
2018-02-18T00:33:41.076Z,100.00
2018-02-18T00:36:08.614Z,100.00
2018-02-18T00:38:36.342Z,100.00
2018-02-18T00:41:03.910Z,100.00
2018-02-18T00:43:31.466Z,100.00
2018-02-18T00:45:59.013Z,100.00
2018-02-18T00:48:26.613Z,100.00
2018-02-18T00:50:54.233Z,100.00
2018-02-18T00:53:21.784Z,100.00
2018-02-18T00:55:49.340Z,100.00
2018-02-18T00:58:16.895Z,100.00
2018-02-18T01:00:44.458Z,100.00
2018-02-18T01:03:12.011Z,100.00
2018-02-18T01:05:39.614Z,100.00
2018-02-18T01:08:07.183Z,100.00
2018-02-18T01:10:34.739Z,100.00
2018-02-18T01:13:02.315Z,100.00
2018-02-18T01:15:29.892Z,100.00
2018-02-18T01:17:57.450Z,100.00
2018-02-18T01:20:25.019Z,100.00
2018-02-18T01:22:52.547Z,100.00
2018-02-18T01:25:20.115Z,100.00
2018-02-18T01:27:47.659Z,100.00
2018-02-18T01:30:15.206Z,100.00
2018-02-18T01:32:42.840Z,100.00
2018-02-18T01:35:10.372Z,100.00
2018-02-18T01:37:37.927Z,100.00
2018-02-18T01:40:05.502Z,100.00
2018-02-18T01:42:33.072Z,100.00
2018-02-18T01:45:00.605Z,100.00
2018-02-18T01:47:28.189Z,100.00
2018-02-18T01:49:55.729Z,100.00
2018-02-18T01:52:23.251Z,100.00
2018-02-18T01:54:50.822Z,100.00
2018-02-18T01:57:18.455Z,100.00
2018-02-18T01:59:46.007Z,100.00
2018-02-18T02:02:13.547Z,100.00
2018-02-18T02:04:41.127Z,100.00
2018-02-18T02:07:08.665Z,100.00
2018-02-18T02:09:36.189Z,100.00
2018-02-18T02:12:03.786Z,100.00
2018-02-18T02:14:31.407Z,100.00
2018-02-18T02:16:58.978Z,100.00
2018-02-18T02:19:26.540Z,100.00
2018-02-18T02:21:54.117Z,100.00
2018-02-18T02:24:21.667Z,100.00
2018-02-18T02:26:49.188Z,100.00
2018-02-18T02:29:16.759Z,100.00
2018-02-18T02:31:44.310Z,100.00
2018-02-18T02:34:11.885Z,100.00
2018-02-18T02:36:39.439Z,100.00
2018-02-18T02:39:06.995Z,100.00
2018-02-18T02:41:34.542Z,100.00
2018-02-18T02:44:02.144Z,100.00
2018-02-18T02:46:29.677Z,100.00
2018-02-18T02:48:57.226Z,100.00
2018-02-18T02:51:24.838Z,100.00
2018-02-18T02:53:52.371Z,100.00
2018-02-18T02:56:20.024Z,100.00
2018-02-18T02:58:47.674Z,100.00
2018-02-18T03:01:15.236Z,100.00
2018-02-18T03:03:42.835Z,100.00
2018-02-18T03:06:10.501Z,100.00
2018-02-18T03:08:38.060Z,100.00
2018-02-18T03:11:05.607Z,100.00
2018-02-18T03:13:33.206Z,100.00
2018-02-18T03:16:00.750Z,100.00
2018-02-18T03:18:28.291Z,100.00
2018-02-18T03:20:55.839Z,100.00
2018-02-18T03:23:23.365Z,100.00
2018-02-18T03:25:50.944Z,100.00
2018-02-18T03:28:18.487Z,100.00
2018-02-18T03:30:46.032Z,100.00
2018-02-18T03:33:13.645Z,100.00
2018-02-18T03:35:41.213Z,100.00
2018-02-18T03:38:08.731Z,100.00
2018-02-18T03:40:36.331Z,100.00
2018-02-18T03:43:03.895Z,100.00
2018-02-18T03:45:31.442Z,100.00
2018-02-18T03:47:58.981Z,100.00
2018-02-18T03:50:26.581Z,100.00
2018-02-18T03:52:54.141Z,100.00
2018-02-18T03:55:21.671Z,100.00
2018-02-18T03:57:49.231Z,100.00
2018-02-18T04:00:16.813Z,100.00
2018-02-18T04:02:44.354Z,100.00
2018-02-18T04:05:11.927Z,100.00
2018-02-18T04:07:39.482Z,100.00
2018-02-18T04:10:07.021Z,100.00
2018-02-18T04:12:34.771Z,100.00
2018-02-18T04:15:02.338Z,100.00
2018-02-18T04:17:29.878Z,100.00
2018-02-18T04:19:57.481Z,100.00
2018-02-18T04:22:25.034Z,100.00
2018-02-18T04:24:52.633Z,100.00
2018-02-18T04:27:20.192Z,100.00
2018-02-18T04:29:47.748Z,100.00
2018-02-18T04:32:15.286Z,100.00
2018-02-18T04:34:42.836Z,100.00
2018-02-18T04:37:10.387Z,100.00
2018-02-18T04:39:37.979Z,100.00
2018-02-18T04:42:05.522Z,100.00
2018-02-18T04:44:33.082Z,100.00
2018-02-18T04:47:00.631Z,100.00
2018-02-18T04:49:28.188Z,100.00
2018-02-18T04:51:55.833Z,100.00
2018-02-18T04:54:23.396Z,100.00
2018-02-18T04:56:50.966Z,100.00
2018-02-18T04:59:18.527Z,100.00
2018-02-18T05:01:46.052Z,100.00
2018-02-18T05:04:13.748Z,100.00
2018-02-18T05:06:41.306Z,100.00
2018-02-18T05:09:08.907Z,100.00
2018-02-18T05:11:36.435Z,100.00
2018-02-18T05:14:03.993Z,100.00
2018-02-18T05:16:31.600Z,100.00
2018-02-18T05:18:59.147Z,100.00
2018-02-18T05:21:26.711Z,100.00
2018-02-18T05:23:54.314Z,100.00
2018-02-18T05:26:21.875Z,100.00
2018-02-18T05:28:49.412Z,100.00
2018-02-18T05:31:16.984Z,100.00
2018-02-18T05:33:44.578Z,100.00
2018-02-18T05:36:12.136Z,100.00
2018-02-18T05:38:39.744Z,100.00
2018-02-18T05:41:08.226Z,100.00
2018-02-18T05:43:35.788Z,100.00
2018-02-18T05:46:03.381Z,100.00
2018-02-18T05:48:30.911Z,100.00
2018-02-18T05:50:58.506Z,100.00
2018-02-18T05:53:26.103Z,100.00
2018-02-18T05:55:53.647Z,100.00
2018-02-18T05:58:21.185Z,100.00
2018-02-18T06:00:48.752Z,100.00
2018-02-18T06:03:16.296Z,100.00
2018-02-18T06:05:43.898Z,100.00
2018-02-18T06:08:11.455Z,100.00
2018-02-18T06:10:39.012Z,100.00
2018-02-18T06:13:06.598Z,100.00
2018-02-18T06:15:34.176Z,100.00
2018-02-18T06:18:01.710Z,100.00
2018-02-18T06:20:29.242Z,100.00
2018-02-18T06:22:56.787Z,100.00
2018-02-18T06:25:24.541Z,100.00
2018-02-18T06:27:52.167Z,100.00
2018-02-18T06:30:19.703Z,100.00
2018-02-18T06:32:47.300Z,100.00
2018-02-18T06:35:14.857Z,100.00
2018-02-18T06:37:42.413Z,100.00
2018-02-18T06:40:10.045Z,100.00
2018-02-18T06:42:37.713Z,100.00
2018-02-18T06:45:05.259Z,100.00
2018-02-18T06:47:32.836Z,100.00
2018-02-18T06:50:00.385Z,100.00
2018-02-18T06:52:27.945Z,100.00
2018-02-18T06:54:55.522Z,100.00
2018-02-18T06:57:23.068Z,100.00
2018-02-18T06:59:50.708Z,100.00
2018-02-18T07:02:18.255Z,100.00
2018-02-18T07:04:45.798Z,100.00
2018-02-18T07:07:13.378Z,100.00
2018-02-18T07:09:40.929Z,100.00
2018-02-18T07:12:08.525Z,100.00
2018-02-18T07:14:36.075Z,100.00
2018-02-18T07:17:03.604Z,100.00
2018-02-18T07:19:31.172Z,100.00
2018-02-18T07:21:58.724Z,100.00
2018-02-18T07:24:26.260Z,100.00
2018-02-18T07:26:53.827Z,100.00
2018-02-18T07:29:21.407Z,100.00
2018-02-18T07:31:48.970Z,100.00
2018-02-18T07:34:17.546Z,100.00
2018-02-18T07:36:45.495Z,100.00
2018-02-18T07:39:13.026Z,100.00
2018-02-18T07:41:40.575Z,100.00
2018-02-18T07:44:08.148Z,100.00
2018-02-18T07:46:35.667Z,100.00
2018-02-18T07:49:03.244Z,100.00
2018-02-18T07:51:30.795Z,100.00
2018-02-18T07:53:58.389Z,100.00
2018-02-18T07:56:25.967Z,100.00
2018-02-18T07:58:53.516Z,100.00
2018-02-18T08:01:21.107Z,100.00
2018-02-18T08:03:48.688Z,100.00
2018-02-18T08:06:16.264Z,100.00
2018-02-18T08:08:43.800Z,100.00
2018-02-18T08:11:11.413Z,100.00
2018-02-18T08:13:38.970Z,100.00
2018-02-18T08:16:06.498Z,100.00
2018-02-18T08:18:34.066Z,100.00
2018-02-18T08:21:01.628Z,100.00
2018-02-18T08:23:29.225Z,100.00
2018-02-18T08:25:56.763Z,100.00
2018-02-18T08:28:24.313Z,100.00
2018-02-18T08:30:51.868Z,100.00
2018-02-18T08:33:19.436Z,100.00
2018-02-18T08:35:46.964Z,98.85
2018-02-18T08:38:14.685Z,98.86
2018-02-18T08:40:42.219Z,98.46
2018-02-18T08:43:09.767Z,98.48
2018-02-18T08:45:37.388Z,97.63
2018-02-18T08:48:04.932Z,97.09
2018-02-18T08:50:32.513Z,95.93
2018-02-18T08:53:00.434Z,97.22
2018-02-18T08:55:28.022Z,95.08
2018-02-18T08:57:55.611Z,96.04
2018-02-18T09:00:23.145Z,95.20
2018-02-18T09:02:50.742Z,94.10
2018-02-18T09:05:18.331Z,94.06
2018-02-18T09:07:45.851Z,93.38
2018-02-18T09:10:13.424Z,92.98
2018-02-18T09:12:41.011Z,92.42
2018-02-18T09:15:08.565Z,92.32
2018-02-18T09:17:36.102Z,92.94
2018-02-18T09:20:03.661Z,92.06
2018-02-18T09:22:31.206Z,92.10
2018-02-18T09:24:58.792Z,92.09
2018-02-18T09:27:26.318Z,91.94
2018-02-18T09:29:53.833Z,92.29
2018-02-18T09:32:21.399Z,91.89
2018-02-18T09:34:48.987Z,92.64
2018-02-18T09:37:16.528Z,91.24
2018-02-18T09:39:44.052Z,90.78
2018-02-18T09:42:11.616Z,90.54
2018-02-18T09:44:39.160Z,89.20
2018-02-18T09:47:06.684Z,89.72
2018-02-18T09:49:34.266Z,89.52
2018-02-18T09:52:01.793Z,89.54
2018-02-18T09:54:29.316Z,90.06
2018-02-18T09:56:56.868Z,89.34
2018-02-18T09:59:24.398Z,89.15
2018-02-18T10:01:51.945Z,89.50
2018-02-18T10:04:19.510Z,89.70
2018-02-18T10:06:47.077Z,88.21
2018-02-18T10:09:14.630Z,87.80
2018-02-18T10:11:42.191Z,87.46
2018-02-18T10:14:09.757Z,86.06
2018-02-18T10:16:37.297Z,86.54
2018-02-18T10:19:04.893Z,86.50
2018-02-18T10:21:32.431Z,86.00
2018-02-18T10:24:00.037Z,86.30
2018-02-18T10:26:27.617Z,85.90
2018-02-18T10:28:55.127Z,86.61
2018-02-18T10:31:22.667Z,86.16
2018-02-18T10:33:50.300Z,84.62
2018-02-18T10:36:17.869Z,84.80
2018-02-18T10:38:45.606Z,85.16
2018-02-18T10:41:13.171Z,84.27
2018-02-18T10:43:40.828Z,84.14
2018-02-18T10:46:08.436Z,84.86
2018-02-18T10:48:35.974Z,84.06
2018-02-18T10:51:03.515Z,83.59
2018-02-18T10:53:31.131Z,83.66
2018-02-18T10:55:58.689Z,83.66
2018-02-18T10:58:26.207Z,83.56
2018-02-18T11:00:53.842Z,82.64
2018-02-18T11:03:21.363Z,82.18
2018-02-18T11:05:49.139Z,82.49
2018-02-18T11:08:16.665Z,82.76
2018-02-18T11:10:44.206Z,83.12
2018-02-18T11:13:11.785Z,83.33
2018-02-18T11:15:39.305Z,82.54
2018-02-18T11:18:06.820Z,82.18
2018-02-18T11:20:34.375Z,81.99
2018-02-18T11:23:01.951Z,81.80
2018-02-18T11:25:29.483Z,81.25
2018-02-18T11:27:57.081Z,81.47
2018-02-18T11:30:24.634Z,81.18
2018-02-18T11:32:52.254Z,81.23
2018-02-18T11:35:19.804Z,80.63
2018-02-18T11:37:47.335Z,80.96
2018-02-18T11:40:14.935Z,80.41
2018-02-18T11:42:42.557Z,80.61
2018-02-18T11:45:10.090Z,81.19
2018-02-18T11:47:37.654Z,80.60
2018-02-18T11:50:05.216Z,80.25
2018-02-18T11:52:32.794Z,79.58
2018-02-18T11:55:00.337Z,80.00
2018-02-18T11:57:27.875Z,79.42
2018-02-18T11:59:55.453Z,79.22
2018-02-18T12:02:23.063Z,78.45
2018-02-18T12:04:50.584Z,78.79
2018-02-18T12:07:18.148Z,78.43
2018-02-18T12:09:45.754Z,77.45
2018-02-18T12:12:13.292Z,77.49
2018-02-18T12:14:40.841Z,77.05
2018-02-18T12:17:08.421Z,77.71
2018-02-18T12:19:36.091Z,76.13
2018-02-18T12:22:03.697Z,75.91
2018-02-18T12:24:31.355Z,75.81
2018-02-18T12:26:58.882Z,74.98
2018-02-18T12:29:26.414Z,74.83
2018-02-18T12:31:54.007Z,75.17
2018-02-18T12:34:21.534Z,74.47
2018-02-18T12:36:49.066Z,75.48
2018-02-18T12:39:16.644Z,73.90
2018-02-18T12:41:44.166Z,73.87
2018-02-18T12:44:11.724Z,74.11
2018-02-18T12:46:39.277Z,74.33
2018-02-18T12:49:06.800Z,73.27
2018-02-18T12:51:34.422Z,72.29
2018-02-18T12:54:01.987Z,72.23
2018-02-18T12:56:29.544Z,71.80
2018-02-18T12:58:57.197Z,71.44
2018-02-18T13:01:26.594Z,71.52
2018-02-18T13:03:54.864Z,72.15
2018-02-18T13:06:22.498Z,71.11
2018-02-18T13:08:50.020Z,70.34
2018-02-18T13:11:17.587Z,69.73
2018-02-18T13:13:45.165Z,70.03
2018-02-18T13:16:12.736Z,70.87
2018-02-18T13:18:40.276Z,72.86
2018-02-18T13:21:07.834Z,73.15
2018-02-18T13:23:35.379Z,73.51
2018-02-18T13:26:02.947Z,73.72
2018-02-18T13:28:30.492Z,74.05
2018-02-18T13:30:58.119Z,73.39
2018-02-18T13:33:25.690Z,73.75
2018-02-18T13:35:53.232Z,73.67
2018-02-18T13:38:20.783Z,72.63
2018-02-18T13:40:48.444Z,72.68
2018-02-18T13:43:16.005Z,72.22
2018-02-18T13:45:43.573Z,72.07
2018-02-18T13:48:11.106Z,72.24
2018-02-18T13:50:38.678Z,71.30
2018-02-18T13:53:06.382Z,72.56
2018-02-18T13:55:34.055Z,72.04
2018-02-18T13:58:01.680Z,71.84
2018-02-18T14:00:29.285Z,71.72
2018-02-18T14:02:56.828Z,71.61
2018-02-18T14:05:24.376Z,72.23
2018-02-18T14:07:51.935Z,72.47
2018-02-18T14:10:19.482Z,72.64
2018-02-18T14:12:47.043Z,72.08
2018-02-18T14:15:14.654Z,71.64
2018-02-18T14:17:42.199Z,71.46
2018-02-18T14:20:09.769Z,71.38
2018-02-18T14:22:37.417Z,72.01
2018-02-18T14:25:04.991Z,71.59
2018-02-18T14:27:32.540Z,72.38
2018-02-18T14:30:00.137Z,73.09
2018-02-18T14:32:27.686Z,73.27
2018-02-18T14:34:55.213Z,72.53
2018-02-18T14:37:22.903Z,71.61
2018-02-18T14:39:50.462Z,71.32
2018-02-18T14:42:29.847Z,70.59
2018-02-18T14:45:09.409Z,70.63
2018-02-18T14:47:48.813Z,71.69
2018-02-18T14:50:28.189Z,72.20
2018-02-18T14:53:07.593Z,71.95
2018-02-18T14:58:36.963Z,73.37
2018-02-18T15:01:04.688Z,73.13
2018-02-18T15:03:32.271Z,72.06
2018-02-18T15:05:59.888Z,73.40
2018-02-18T15:08:27.420Z,73.06
2018-02-18T15:10:55.072Z,74.40
2018-02-18T15:13:22.651Z,74.17
2018-02-18T15:15:50.210Z,74.59
2018-02-18T15:18:17.825Z,74.77
2018-02-18T15:20:45.389Z,75.02
2018-02-18T15:23:13.044Z,74.70
2018-02-18T15:25:40.581Z,74.13
2018-02-18T15:28:08.476Z,73.78
2018-02-18T15:30:36.171Z,74.04
2018-02-18T15:33:03.745Z,74.24
2018-02-18T15:35:31.284Z,74.48
2018-02-18T15:37:59.038Z,75.16
2018-02-18T15:40:26.619Z,75.69
2018-02-18T15:42:54.176Z,76.19
2018-02-18T15:45:21.712Z,76.80
2018-02-18T15:47:49.333Z,77.37
2018-02-18T15:50:16.887Z,77.62
2018-02-18T15:52:44.456Z,77.63
2018-02-18T15:55:12.003Z,77.78
2018-02-18T15:57:39.774Z,77.37
2018-02-18T16:00:07.415Z,76.68
2018-02-18T16:02:35.012Z,76.98
2018-02-18T16:05:02.582Z,77.33
2018-02-18T16:07:30.143Z,77.69
2018-02-18T16:09:57.733Z,77.70
2018-02-18T16:12:25.268Z,78.66
2018-02-18T16:14:52.877Z,78.86
2018-02-18T16:17:20.454Z,78.83
2018-02-18T16:19:48.058Z,79.03
2018-02-18T16:22:15.781Z,79.80
2018-02-18T16:24:43.411Z,80.16
2018-02-18T16:27:10.979Z,80.94
2018-02-18T16:29:38.519Z,80.97
2018-02-18T16:32:06.511Z,82.21
2018-02-18T16:34:34.110Z,83.08
2018-02-18T16:37:01.681Z,83.62
2018-02-18T16:39:29.249Z,84.20
2018-02-18T16:41:56.790Z,84.21
2018-02-18T16:44:24.405Z,84.51
2018-02-18T16:46:51.943Z,84.64
2018-02-18T16:49:19.459Z,85.55
2018-02-18T16:51:47.142Z,86.03
2018-02-18T16:54:14.724Z,86.91
2018-02-18T16:56:42.322Z,87.63
2018-02-18T16:59:09.867Z,88.36
2018-02-18T17:01:37.399Z,88.59
2018-02-18T17:04:04.987Z,89.05
2018-02-18T17:06:32.572Z,89.51
2018-02-18T17:09:00.462Z,90.54
2018-02-18T17:11:28.037Z,90.92
2018-02-18T17:13:55.667Z,90.37
2018-02-18T17:16:23.300Z,90.45
2018-02-18T17:18:50.921Z,90.46
2018-02-18T17:21:18.539Z,90.95
2018-02-18T17:23:46.170Z,91.63
2018-02-18T17:26:13.744Z,92.16
2018-02-18T17:28:41.323Z,92.43
2018-02-18T17:31:08.860Z,92.64
2018-02-18T17:33:36.406Z,92.87
2018-02-18T17:36:03.981Z,93.25
2018-02-18T17:38:31.521Z,93.44
2018-02-18T17:40:59.040Z,93.78
2018-02-18T17:43:26.594Z,94.09
2018-02-18T17:45:54.328Z,94.38
2018-02-18T17:48:21.903Z,94.61
2018-02-18T17:50:49.469Z,94.81
2018-02-18T17:53:17.001Z,95.09
2018-02-18T17:55:44.559Z,95.22
2018-02-18T17:58:12.087Z,95.10
2018-02-18T18:00:39.647Z,95.37
2018-02-18T18:03:07.214Z,95.37
2018-02-18T18:05:34.730Z,94.99
2018-02-18T18:08:02.282Z,94.87
2018-02-18T18:10:29.961Z,94.11
2018-02-18T18:12:57.516Z,94.56
2018-02-18T18:15:25.053Z,95.00
2018-02-18T18:17:52.656Z,95.44
2018-02-18T18:20:20.195Z,95.47
2018-02-18T18:22:47.809Z,95.74
2018-02-18T18:25:15.359Z,96.24
2018-02-18T18:27:42.901Z,96.21
2018-02-18T18:30:10.477Z,96.46
2018-02-18T18:32:38.056Z,96.48
2018-02-18T18:35:05.800Z,96.87
2018-02-18T18:37:33.349Z,97.09
2018-02-18T18:40:00.961Z,96.94
2018-02-18T18:42:28.524Z,96.81
2018-02-18T18:44:56.820Z,96.95
2018-02-18T18:47:25.057Z,96.58
2018-02-18T18:49:52.671Z,97.07
2018-02-18T18:52:20.191Z,97.18
2018-02-18T18:54:47.763Z,97.43
2018-02-18T18:57:15.361Z,97.45
2018-02-18T18:59:42.942Z,97.32
2018-02-18T19:02:10.483Z,97.36
2018-02-18T19:04:38.075Z,97.33
2018-02-18T19:07:05.629Z,97.41
2018-02-18T19:09:33.198Z,97.55
2018-02-18T19:12:00.859Z,97.38
2018-02-18T19:14:28.494Z,97.31
2018-02-18T19:16:56.081Z,97.54
2018-02-18T19:19:23.659Z,97.57
2018-02-18T19:21:51.184Z,97.75
2018-02-18T19:24:18.710Z,97.73
2018-02-18T19:26:46.272Z,97.98
2018-02-18T19:29:13.827Z,97.62
2018-02-18T19:31:41.381Z,97.82
2018-02-18T19:34:08.956Z,97.98
2018-02-18T19:36:36.503Z,98.16
2018-02-18T19:39:04.116Z,98.15
2018-02-18T19:41:31.647Z,98.34
2018-02-18T19:43:59.216Z,98.24
2018-02-18T19:46:27.323Z,98.42
2018-02-18T19:48:54.915Z,98.46
2018-02-18T19:51:22.508Z,98.50
2018-02-18T19:53:50.995Z,98.72
2018-02-18T19:56:18.575Z,98.74
2018-02-18T19:58:46.170Z,98.81
2018-02-18T20:01:13.692Z,98.91
2018-02-18T20:03:41.274Z,98.69
2018-02-18T20:06:08.877Z,98.80
2018-02-18T20:08:36.445Z,98.95
2018-02-18T20:11:03.988Z,98.81
2018-02-18T20:13:31.590Z,98.54
2018-02-18T20:15:59.160Z,98.57
2018-02-18T20:18:26.697Z,98.61
2018-02-18T20:20:54.286Z,98.80
2018-02-18T20:23:21.851Z,99.32
2018-02-18T20:25:49.389Z,99.11
2018-02-18T20:28:16.931Z,99.13
2018-02-18T20:30:44.496Z,99.28
2018-02-18T20:33:12.116Z,99.04
2018-02-18T20:35:39.653Z,99.06
2018-02-18T20:38:07.180Z,98.87
2018-02-18T20:40:34.780Z,99.11
2018-02-18T20:43:02.327Z,99.26
2018-02-18T20:45:29.863Z,99.01
2018-02-18T20:47:57.512Z,99.08
2018-02-18T20:50:25.041Z,98.83
2018-02-18T20:52:52.576Z,98.79
2018-02-18T20:55:20.116Z,98.47
2018-02-18T20:57:47.659Z,98.15
2018-02-18T21:00:15.505Z,98.13
2018-02-18T21:02:43.210Z,98.13
2018-02-18T21:05:10.748Z,98.40
2018-02-18T21:07:38.338Z,98.50
2018-02-18T21:10:05.879Z,98.53
2018-02-18T21:12:33.444Z,98.52
2018-02-18T21:15:01.048Z,98.74
2018-02-18T21:17:28.600Z,98.72
2018-02-18T21:19:56.152Z,98.87
2018-02-18T21:22:23.730Z,98.78
2018-02-18T21:24:51.256Z,98.85
2018-02-18T21:27:18.847Z,98.76
2018-02-18T21:29:46.379Z,98.75
2018-02-18T21:32:13.929Z,98.49
2018-02-18T21:34:42.378Z,98.60
2018-02-18T21:37:09.972Z,98.57
2018-02-18T21:39:37.523Z,98.76
2018-02-18T21:42:05.107Z,98.92
2018-02-18T21:44:32.646Z,99.01
2018-02-18T21:47:00.181Z,99.14
2018-02-18T21:49:27.762Z,99.24
2018-02-18T21:51:55.316Z,99.02
2018-02-18T21:54:22.882Z,98.94
2018-02-18T21:56:50.419Z,99.04
2018-02-18T21:59:18.067Z,99.09
2018-02-18T22:01:45.621Z,98.72
2018-02-18T22:04:13.145Z,98.83
2018-02-18T22:06:40.745Z,98.71
2018-02-18T22:09:08.233Z,98.97
2018-02-18T22:11:35.789Z,98.74
2018-02-18T22:14:03.329Z,98.84
2018-02-18T22:16:30.875Z,98.77
2018-02-18T22:18:58.423Z,98.84
2018-02-18T22:21:25.994Z,98.66
2018-02-18T22:23:53.557Z,98.82
2018-02-18T22:26:21.102Z,98.63
2018-02-18T22:28:48.673Z,98.31
2018-02-18T22:31:16.239Z,97.95
2018-02-18T22:33:43.768Z,97.75
2018-02-18T22:36:11.340Z,97.72
2018-02-18T22:38:38.941Z,97.82
2018-02-18T22:41:06.503Z,97.21
2018-02-18T22:43:34.031Z,96.99
2018-02-18T22:46:01.576Z,96.32
2018-02-18T22:48:29.102Z,96.96
2018-02-18T22:50:56.683Z,96.63
2018-02-18T22:53:24.214Z,96.97
2018-02-18T22:55:51.750Z,96.65
2018-02-18T22:58:19.319Z,95.32
2018-02-18T23:00:47.023Z,95.85
2018-02-18T23:03:14.539Z,95.24
2018-02-18T23:05:47.756Z,95.42
2018-02-18T23:08:15.338Z,94.69
2018-02-18T23:10:42.867Z,94.42
2018-02-18T23:13:10.432Z,94.24
2018-02-18T23:15:37.963Z,93.29
2018-02-18T23:18:05.562Z,91.87
2018-02-18T23:20:44.906Z,91.41
2018-02-18T23:23:12.459Z,91.18
2018-02-18T23:25:40.036Z,91.63
2018-02-18T23:28:07.577Z,92.01
2018-02-18T23:30:35.104Z,90.80
2018-02-18T23:33:02.669Z,90.62
2018-02-18T23:35:30.203Z,90.07
2018-02-18T23:37:57.719Z,89.77
2018-02-18T23:40:25.292Z,89.61
2018-02-18T23:42:52.812Z,89.71
2018-02-18T23:45:21.190Z,89.89
2018-02-18T23:47:48.918Z,89.62
2018-02-18T23:50:16.454Z,90.30
2018-02-18T23:52:43.994Z,89.81
2018-02-18T23:55:11.551Z,89.61
2018-02-18T23:57:39.091Z,88.63
